Terminal Aerodrome Forecast
Issued by NWS

Home | Current Version | Previous Version | Text Only | Print | Product List | Glossary On
Versions: 1 2 3 4 5 6 7 8 9 10 11 12 13 14 15
000
FTUS42 KGSP 301032 AAB
TAFGMU
TAF AMD
KGMU 301032Z 3011/3106 20008KT P6SM -SHRA SCT030 OVC045
      TEMPO 3011/3014 5SM -TSRA BR SCT015CB OVC030
     FM301400 24007KT P6SM OVC015
     FM301600 25007KT P6SM SCT025
     FM301800 27007KT P6SM SCT250
     FM302200 31007KT P6SM FEW250=

USA.gov is the U.S. government's official web portal to all federal, state and local government web resources and services.